Huvudsida
METAR-TAF:

METAR-TAF

Flygplatser :

Alta flygplats

Alta, Norge

latitud: 69-59N, longitud: 023-22E, höjd: 0 m

Aktuellt väderrapport

Denna rapport gjordes för 24 minuter sedan, klockan 03:50 UTC
Vind 8 kt från nord/nordost
Temperatur -4°C
Fuktighet 63%
Tryck 991 hPa
Sikt 10 km eller mer
lätt snö

METAR: ENAT 190350Z AUTO 03008KT 9999 -SN BKN035/// OVC048/// M04/M10 Q0991 RMK WIND 700FT 35019KT

Tid: 05:14 (04:14 UTC)

Väderprognos

Denna rapport gjordes för 2 timmar och 14 minuter sedan, klockan 02:00 UTC
Prognos gäller från 19 kl. 03 UTC till 19 kl. 12 UTC
Vind 5 kt från nord
Sikt 10 km eller mer
Få moln på en höjd av 1500 ft
Sannolikhet 40%
från 19 kl. 03 UTC till 19 kl. 12 UTC
Sikt: 4000 m
på en höjd av 1200 ft
lätta snöbyar

TAF: ENAT 190200Z 1903/1912 36005KT 9999 FEW015 PROB40 1903/1912 4000 -SHSN VV012

Aktuella väderrapporter och prognoser från 4000 flygplatser (METAR- och TAF-rapporter).

De tillgängliga stationerna syns som gula och röda prickar på kartan.

För musen över prickarna för att se namnen på stationerna.

Klicka sedan för att få väderrapporter och prognoser.

För att ändra kartan: Klicka på de gröna knapparna med ett svart kors på för att zooma in; den gröna knappen med ett streck på för att zooma ut; eller på de gröna pilarna för angränsande kartor.


METAR-TAF: